Time;durP1;ratioP1;P1;durP2;ratioP2;P2;SDS_P1;SDS_P2;PMS_P1;PMS_P2;Temp;Humidity;BMP_temperature;BMP_pressure;BME280_temperature;BME280_humidity;BME280_pressure;Samples;Min_cycle;Max_cycle;Signal;HPM_P1;HPM_P2
2022/10/07 00:00:51;;;;;;;10.80;5.47;;;;;;;;;;5054831;28;20204;-59
2022/10/07 00:03:29;;;;;;;9.05;5.63;;;;;;;;;;5055336;28;20184;-58
2022/10/07 00:06:02;;;;;;;13.88;5.75;;;;;;;;;;5054805;28;20270;-59
2022/10/07 00:08:29;;;;;;;8.90;5.53;;;;;;;;;;5054622;28;20199;-58
2022/10/07 00:10:56;;;;;;;12.85;5.63;;;;;;;;;;5054974;28;20195;-59
2022/10/07 00:13:23;;;;;;;10.00;5.40;;;;;;;;;;5054653;28;20204;-58
2022/10/07 00:15:50;;;;;;;17.20;5.47;;;;;;;;;;5054603;28;20223;-58
2022/10/07 00:18:17;;;;;;;14.07;5.63;;;;;;;;;;5054439;28;20200;-59
2022/10/07 00:20:44;;;;;;;13.80;5.53;;;;;;;;;;5055432;28;20583;-59
2022/10/07 00:23:11;;;;;;;11.73;6.38;;;;;;;;;;5054774;28;20279;-58
2022/10/07 00:25:38;;;;;;;9.75;6.30;;;;;;;;;;5058950;28;20200;-59
2022/10/07 00:28:05;;;;;;;8.98;6.15;;;;;;;;;;5058876;28;20510;-58
2022/10/07 00:30:32;;;;;;;13.55;6.82;;;;;;;;;;5057739;28;20235;-58
2022/10/07 00:32:59;;;;;;;12.98;6.50;;;;;;;;;;5058726;28;20204;-59
2022/10/07 00:35:26;;;;;;;9.30;6.15;;;;;;;;;;5058711;28;20203;-58
2022/10/07 00:37:53;;;;;;;11.30;6.68;;;;;;;;;;5058374;28;20295;-59
2022/10/07 00:40:20;;;;;;;10.90;6.47;;;;;;;;;;5058553;28;20227;-59
2022/10/07 00:42:49;;;;;;;13.65;6.80;;;;;;;;;;5058445;28;20738;-58
2022/10/07 00:45:18;;;;;;;13.82;6.72;;;;;;;;;;5057480;28;20279;-57
2022/10/07 00:47:47;;;;;;;10.32;6.35;;;;;;;;;;5058398;28;20200;-58
2022/10/07 00:50:19;;;;;;;11.32;6.45;;;;;;;;;;5058551;28;20208;-58
2022/10/07 00:52:53;;;;;;;11.23;6.25;;;;;;;;;;5040932;28;20208;-58
2022/10/07 00:55:22;;;;;;;13.00;6.70;;;;;;;;;;5056527;28;20200;-58
2022/10/07 00:57:52;;;;;;;9.57;5.90;;;;;;;;;;5039711;28;20200;-58
2022/10/07 01:00:22;;;;;;;8.98;5.38;;;;;;;;;;5040374;28;20544;-58
2022/10/07 01:02:50;;;;;;;11.80;6.00;;;;;;;;;;5056456;28;20207;-58
2022/10/07 01:05:18;;;;;;;12.60;6.10;;;;;;;;;;5056499;28;20207;-59
2022/10/07 01:07:46;;;;;;;11.70;6.72;;;;;;;;;;5039625;28;20654;-59
2022/10/07 01:10:17;;;;;;;16.05;6.65;;;;;;;;;;5039963;28;20212;-57
2022/10/07 01:13:05;;;;;;;11.05;6.22;;;;;;;;;;5040077;28;20626;-58
2022/10/07 01:15:39;;;;;;;8.70;6.10;;;;;;;;;;5056457;28;20200;-58
2022/10/07 01:18:11;;;;;;;11.55;6.20;;;;;;;;;;5039568;28;20261;-59
2022/10/07 01:20:50;;;;;;;11.00;6.30;;;;;;;;;;5039507;28;20349;-59
2022/10/07 01:23:43;;;;;;;8.98;6.28;;;;;;;;;;5055932;28;20264;-58
2022/10/07 01:26:40;;;;;;;10.63;5.80;;;;;;;;;;5055849;28;20204;-59
2022/10/07 01:29:13;;;;;;;12.27;6.03;;;;;;;;;;5055883;28;20203;-58
2022/10/07 01:32:10;;;;;;;11.73;5.80;;;;;;;;;;5056503;28;20184;-58
2022/10/07 01:34:38;;;;;;;10.20;5.45;;;;;;;;;;5057029;28;20215;-59
2022/10/07 01:37:07;;;;;;;8.88;5.47;;;;;;;;;;5056165;28;20199;-58
2022/10/07 01:39:39;;;;;;;10.02;5.90;;;;;;;;;;5040091;28;20231;-58
2022/10/07 01:42:08;;;;;;;9.57;6.13;;;;;;;;;;5041047;28;20215;-58
2022/10/07 01:44:35;;;;;;;9.88;6.28;;;;;;;;;;5057207;28;20655;-56
2022/10/07 01:47:02;;;;;;;9.02;6.15;;;;;;;;;;5057417;28;20204;-58
2022/10/07 01:49:29;;;;;;;10.48;6.00;;;;;;;;;;5056499;28;20219;-58
2022/10/07 01:52:29;;;;;;;11.50;7.00;;;;;;;;;;5056956;28;20554;-59
2022/10/07 01:55:02;;;;;;;11.88;6.18;;;;;;;;;;5056189;28;20212;-58
2022/10/07 01:58:15;;;;;;;13.25;6.78;;;;;;;;;;5039637;28;20219;-58
2022/10/07 02:00:46;;;;;;;10.23;5.82;;;;;;;;;;5018923;28;20237;-58
2022/10/07 02:03:24;;;;;;;10.98;6.50;;;;;;;;;;5035448;28;20204;-58
2022/10/07 02:06:11;;;;;;;12.57;6.30;;;;;;;;;;5019261;28;20208;-58
2022/10/07 02:08:39;;;;;;;11.65;6.15;;;;;;;;;;5018842;28;20208;-58
2022/10/07 02:11:21;;;;;;;11.35;6.22;;;;;;;;;;5018911;28;20659;-59
2022/10/07 02:14:02;;;;;;;11.85;6.70;;;;;;;;;;5018744;28;20204;-58
2022/10/07 02:16:43;;;;;;;11.60;6.45;;;;;;;;;;5018912;28;20250;-58
2022/10/07 02:19:14;;;;;;;10.90;6.53;;;;;;;;;;5018663;28;20220;-59
2022/10/07 02:21:44;;;;;;;11.10;7.07;;;;;;;;;;5018616;28;20185;-59
2022/10/07 02:24:12;;;;;;;10.32;6.05;;;;;;;;;;5018397;28;20631;-59
2022/10/07 02:26:39;;;;;;;14.38;7.38;;;;;;;;;;5002327;28;20209;-58
2022/10/07 02:29:08;;;;;;;10.75;6.75;;;;;;;;;;5018679;28;20215;-59
2022/10/07 02:31:36;;;;;;;11.00;6.97;;;;;;;;;;5018364;28;20292;-58
2022/10/07 02:34:04;;;;;;;12.18;6.53;;;;;;;;;;5018423;28;20196;-59
2022/10/07 02:36:35;;;;;;;13.30;7.07;;;;;;;;;;5038626;28;20216;-59
2022/10/07 02:39:05;;;;;;;12.50;7.45;;;;;;;;;;5039356;28;20600;-58
2022/10/07 02:41:39;;;;;;;10.55;7.15;;;;;;;;;;5056478;28;20211;-58
2022/10/07 02:44:24;;;;;;;12.07;7.00;;;;;;;;;;5039943;28;20242;-58
2022/10/07 02:47:18;;;;;;;13.20;6.22;;;;;;;;;;5038652;28;20200;-58
2022/10/07 02:49:48;;;;;;;11.13;6.20;;;;;;;;;;5055943;28;20623;-59
2022/10/07 02:52:18;;;;;;;11.88;6.72;;;;;;;;;;5055221;28;20208;-59
2022/10/07 02:55:10;;;;;;;10.45;6.80;;;;;;;;;;5038757;28;20211;-58
2022/10/07 02:57:39;;;;;;;10.00;6.30;;;;;;;;;;5055126;28;20345;-59
2022/10/07 03:00:07;;;;;;;11.93;7.25;;;;;;;;;;5038605;28;20224;-59
2022/10/07 03:02:56;;;;;;;10.23;6.72;;;;;;;;;;5055176;28;20212;-58
2022/10/07 03:05:33;;;;;;;14.07;7.07;;;;;;;;;;5039478;28;20716;-58
2022/10/07 03:08:06;;;;;;;7.63;5.30;;;;;;;;;;5054880;28;20211;-58
2022/10/07 03:10:35;;;;;;;8.20;4.25;;;;;;;;;;5055190;28;20203;-58
2022/10/07 03:13:03;;;;;;;7.43;5.28;;;;;;;;;;5054903;28;20227;-58
2022/10/07 03:15:35;;;;;;;9.80;6.55;;;;;;;;;;5054474;28;20200;-58
2022/10/07 03:18:24;;;;;;;9.95;6.13;;;;;;;;;;5054607;28;20635;-58
2022/10/07 03:20:57;;;;;;;11.85;6.22;;;;;;;;;;5054391;28;20273;-59
2022/10/07 03:23:25;;;;;;;10.20;6.10;;;;;;;;;;5052978;28;20203;-58
2022/10/07 03:25:54;;;;;;;8.50;5.38;;;;;;;;;;5055262;28;20224;-59
2022/10/07 03:28:23;;;;;;;13.02;5.93;;;;;;;;;;5037286;28;20239;-59
2022/10/07 03:30:51;;;;;;;10.75;5.70;;;;;;;;;;5034823;28;20204;-59
2022/10/07 03:33:20;;;;;;;11.40;7.03;;;;;;;;;;5034296;28;20547;-58
2022/10/07 03:35:47;;;;;;;10.68;5.40;;;;;;;;;;5038292;28;20196;-58
2022/10/07 03:38:14;;;;;;;7.07;4.22;;;;;;;;;;5048078;28;20285;-58
2022/10/07 03:40:43;;;;;;;7.10;4.22;;;;;;;;;;5052194;28;20228;-58
2022/10/07 03:43:11;;;;;;;5.22;3.65;;;;;;;;;;5045327;28;20248;-58
2022/10/07 03:45:44;;;;;;;6.15;4.47;;;;;;;;;;5047588;28;20216;-56
2022/10/07 03:48:12;;;;;;;8.25;4.82;;;;;;;;;;5031819;28;20233;-58
2022/10/07 03:50:39;;;;;;;8.45;5.22;;;;;;;;;;5063690;28;20215;-58
2022/10/07 03:53:07;;;;;;;12.80;6.18;;;;;;;;;;5064169;28;20677;-58
2022/10/07 03:55:34;;;;;;;6.70;4.70;;;;;;;;;;5054235;28;20224;-58
2022/10/07 03:58:01;;;;;;;6.70;4.72;;;;;;;;;;5052797;28;20334;-58
2022/10/07 04:00:28;;;;;;;11.88;5.60;;;;;;;;;;5052948;28;20236;-57
2022/10/07 04:02:56;;;;;;;8.20;5.70;;;;;;;;;;5053114;28;20235;-57
2022/10/07 04:05:23;;;;;;;10.70;5.90;;;;;;;;;;5050922;28;20247;-57
2022/10/07 04:07:51;;;;;;;9.60;5.57;;;;;;;;;;5053299;28;20636;-56
2022/10/07 04:10:20;;;;;;;9.50;4.97;;;;;;;;;;5067829;28;20358;-58
2022/10/07 04:12:50;;;;;;;6.90;4.32;;;;;;;;;;5051470;28;20659;-58
2022/10/07 04:15:18;;;;;;;7.43;4.65;;;;;;;;;;5049326;28;20216;-58
2022/10/07 04:17:46;;;;;;;10.38;5.63;;;;;;;;;;5052915;28;20232;-56
2022/10/07 04:20:16;;;;;;;11.52;6.88;;;;;;;;;;5052873;28;20232;-57
2022/10/07 04:22:44;;;;;;;12.10;6.38;;;;;;;;;;5052193;28;20545;-57
2022/10/07 04:28:00;;;;;;;15.68;6.82;;;;;;;;;;5045904;28;20315;-56
2022/10/07 04:30:33;;;;;;;10.38;6.53;;;;;;;;;;5064390;28;20284;-55
2022/10/07 04:33:01;;;;;;;10.60;6.50;;;;;;;;;;5053792;28;20299;-56
2022/10/07 04:35:29;;;;;;;10.85;6.60;;;;;;;;;;5037498;28;20236;-57
2022/10/07 04:37:57;;;;;;;7.88;5.25;;;;;;;;;;5047937;28;20220;-57
2022/10/07 04:40:29;;;;;;;11.18;5.40;;;;;;;;;;5039201;28;20242;-57
2022/10/07 04:45:43;;;;;;;11.52;7.00;;;;;;;;;;5054513;28;20725;-58
2022/10/07 04:48:10;;;;;;;14.00;6.70;;;;;;;;;;5058917;28;20223;-58
2022/10/07 04:50:37;;;;;;;9.25;6.80;;;;;;;;;;5057621;28;20223;-57
2022/10/07 04:53:08;;;;;;;10.55;6.55;;;;;;;;;;5059380;28;20266;-56
2022/10/07 04:55:37;;;;;;;10.95;5.90;;;;;;;;;;5049115;28;20224;-57
2022/10/07 04:58:05;;;;;;;13.40;6.60;;;;;;;;;;5050645;28;20301;-56
2022/10/07 05:00:34;;;;;;;12.80;6.47;;;;;;;;;;5049099;28;20224;-55
2022/10/07 05:03:02;;;;;;;9.90;6.72;;;;;;;;;;5048933;28;20212;-54
2022/10/07 05:05:29;;;;;;;9.48;6.82;;;;;;;;;;5047338;28;20249;-55
2022/10/07 05:07:57;;;;;;;12.18;7.43;;;;;;;;;;5047568;28;20542;-51
2022/10/07 05:10:25;;;;;;;10.88;6.22;;;;;;;;;;5051816;28;20235;-57
2022/10/07 05:12:53;;;;;;;11.75;6.68;;;;;;;;;;5054847;28;20215;-51
2022/10/07 05:15:23;;;;;;;22.02;8.52;;;;;;;;;;5038594;28;20220;-55
2022/10/07 05:17:54;;;;;;;11.55;7.07;;;;;;;;;;5052078;28;20228;-56
2022/10/07 05:20:25;;;;;;;9.18;5.88;;;;;;;;;;5053115;28;20305;-52
2022/10/07 05:22:53;;;;;;;14.73;6.35;;;;;;;;;;5055129;28;20293;-56
2022/10/07 05:25:20;;;;;;;11.57;6.80;;;;;;;;;;5050652;28;20224;-54
2022/10/07 05:27:52;;;;;;;13.27;7.53;;;;;;;;;;5036939;28;20315;-54
2022/10/07 05:30:20;;;;;;;13.60;7.28;;;;;;;;;;5036254;28;20225;-55
2022/10/07 05:32:49;;;;;;;12.20;6.78;;;;;;;;;;5039112;28;20246;-55
2022/10/07 05:35:16;;;;;;;11.43;7.07;;;;;;;;;;5045862;28;20227;-54
2022/10/07 05:37:43;;;;;;;12.13;6.72;;;;;;;;;;5052536;28;20231;-55
2022/10/07 05:40:18;;;;;;;8.02;6.30;;;;;;;;;;5053596;28;20227;-66
2022/10/07 05:42:46;;;;;;;10.80;6.63;;;;;;;;;;5054935;28;20277;-66
2022/10/07 05:45:13;;;;;;;11.82;7.15;;;;;;;;;;5055803;28;20674;-65
2022/10/07 05:47:40;;;;;;;15.02;8.20;;;;;;;;;;5045093;28;20267;-66
2022/10/07 05:50:08;;;;;;;12.73;8.40;;;;;;;;;;5036397;28;20197;-68
2022/10/07 05:52:36;;;;;;;12.35;8.20;;;;;;;;;;5019770;28;20686;-63
2022/10/07 05:55:04;;;;;;;13.57;9.48;;;;;;;;;;5036810;28;20200;-63
2022/10/07 05:57:31;;;;;;;16.17;11.00;;;;;;;;;;5019730;28;20201;-64
2022/10/07 05:59:58;;;;;;;115.65;34.95;;;;;;;;;;5035978;28;20240;-65
2022/10/07 06:02:25;;;;;;;30.75;14.25;;;;;;;;;;5037509;28;20208;-64
2022/10/07 06:04:53;;;;;;;15.27;9.80;;;;;;;;;;5036087;28;20264;-68
2022/10/07 06:07:21;;;;;;;23.15;10.07;;;;;;;;;;5054514;28;20200;-68
2022/10/07 06:15:29;;;;;;;21.00;14.00;;;;;;;;;;5044374;28;20196;-61
2022/10/07 06:17:56;;;;;;;19.00;13.98;;;;;;;;;;5054227;28;20236;-61
2022/10/07 06:20:23;;;;;;;19.00;13.25;;;;;;;;;;5055207;28;20219;-61
2022/10/07 06:22:53;;;;;;;17.80;13.13;;;;;;;;;;5054821;28;20204;-61
2022/10/07 06:25:21;;;;;;;17.98;12.75;;;;;;;;;;5055637;28;20215;-61
2022/10/07 06:27:48;;;;;;;15.20;12.65;;;;;;;;;;5055701;28;20265;-61
2022/10/07 06:30:21;;;;;;;17.40;12.70;;;;;;;;;;5055353;28;20203;-61
2022/10/07 06:32:48;;;;;;;18.90;13.77;;;;;;;;;;5056169;28;20211;-61
2022/10/07 06:35:15;;;;;;;20.90;14.75;;;;;;;;;;5055604;28;20208;-61
2022/10/07 06:37:42;;;;;;;22.83;15.68;;;;;;;;;;5056429;28;20633;-61
2022/10/07 06:40:10;;;;;;;21.60;16.20;;;;;;;;;;5055425;28;20538;-60
2022/10/07 06:42:38;;;;;;;20.65;16.35;;;;;;;;;;5055753;28;20198;-61
2022/10/07 06:45:34;;;;;;;22.88;15.60;;;;;;;;;;4995085;28;20210;-61
2022/10/07 06:48:01;;;;;;;27.55;15.98;;;;;;;;;;4978872;28;20198;-61
2022/10/07 06:50:29;;;;;;;20.67;15.07;;;;;;;;;;4994929;28;20214;-61
2022/10/07 06:52:56;;;;;;;21.70;14.38;;;;;;;;;;4994626;28;20198;-61
2022/10/07 06:55:28;;;;;;;17.30;13.50;;;;;;;;;;4978413;28;20210;-61
2022/10/07 06:57:55;;;;;;;18.17;13.05;;;;;;;;;;4994586;28;20210;-61
2022/10/07 07:00:23;;;;;;;21.77;14.68;;;;;;;;;;4978658;28;20237;-61
2022/10/07 07:02:50;;;;;;;19.27;14.75;;;;;;;;;;4994752;28;20210;-61
2022/10/07 07:05:18;;;;;;;22.75;12.77;;;;;;;;;;4994789;28;20256;-61
2022/10/07 07:07:45;;;;;;;20.38;13.63;;;;;;;;;;4994790;28;20256;-61
2022/10/07 07:10:13;;;;;;;18.13;12.98;;;;;;;;;;4994702;28;20609;-61
2022/10/07 07:12:44;;;;;;;21.08;12.93;;;;;;;;;;4994667;28;20285;-61
2022/10/07 07:15:13;;;;;;;17.58;12.38;;;;;;;;;;4984718;28;20210;-62
2022/10/07 07:17:39;;;;;;;21.17;12.38;;;;;;;;;;4978857;28;20214;-60
2022/10/07 07:20:08;;;;;;;15.02;10.40;;;;;;;;;;4994542;28;20535;-62
2022/10/07 07:22:35;;;;;;;16.80;10.20;;;;;;;;;;5023971;28;20236;-63
2022/10/07 07:25:03;;;;;;;15.63;10.98;;;;;;;;;;5048056;28;20215;-63
2022/10/07 07:27:31;;;;;;;23.77;10.50;;;;;;;;;;5035734;28;20219;-61
2022/10/07 07:29:58;;;;;;;15.43;9.60;;;;;;;;;;5054240;28;20203;-63
2022/10/07 07:32:26;;;;;;;16.42;9.60;;;;;;;;;;5053703;28;20631;-64
2022/10/07 07:34:54;;;;;;;14.98;8.82;;;;;;;;;;5055204;28;20238;-61
2022/10/07 07:37:23;;;;;;;13.48;8.73;;;;;;;;;;5054338;28;20200;-65
2022/10/07 07:39:53;;;;;;;15.20;10.15;;;;;;;;;;5046870;28;20488;-63
2022/10/07 07:42:20;;;;;;;16.38;9.68;;;;;;;;;;5038359;28;20239;-62
2022/10/07 07:44:47;;;;;;;16.75;9.02;;;;;;;;;;5037469;28;20200;-64
2022/10/07 07:47:16;;;;;;;14.48;8.00;;;;;;;;;;5054080;28;20215;-64
2022/10/07 07:49:47;;;;;;;14.77;6.57;;;;;;;;;;5053633;28;20215;-64
2022/10/07 07:52:20;;;;;;;14.48;6.50;;;;;;;;;;5053996;28;20195;-60
2022/10/07 07:54:50;;;;;;;9.93;5.40;;;;;;;;;;5039186;28;20208;-61
2022/10/07 07:57:17;;;;;;;10.02;5.30;;;;;;;;;;5034489;28;20257;-62
2022/10/07 07:59:44;;;;;;;12.65;5.18;;;;;;;;;;5052331;28;20239;-62
2022/10/07 08:02:15;;;;;;;9.73;5.40;;;;;;;;;;5053932;28;20227;-62
2022/10/07 08:04:46;;;;;;;12.23;5.15;;;;;;;;;;5070690;28;20211;-62
2022/10/07 08:07:14;;;;;;;13.30;5.50;;;;;;;;;;5044539;28;20205;-62
2022/10/07 08:09:44;;;;;;;10.25;6.05;;;;;;;;;;5034269;28;20200;-62
2022/10/07 08:12:13;;;;;;;10.43;5.82;;;;;;;;;;5034945;28;20205;-62
2022/10/07 08:14:42;;;;;;;8.05;4.90;;;;;;;;;;5034045;28;20287;-62
2022/10/07 08:17:09;;;;;;;10.85;6.55;;;;;;;;;;5034595;28;20220;-61
2022/10/07 08:19:37;;;;;;;25.23;14.73;;;;;;;;;;5041775;28;20199;-62
2022/10/07 08:22:05;;;;;;;23.15;15.63;;;;;;;;;;5054839;28;20262;-62
2022/10/07 08:24:33;;;;;;;17.58;12.35;;;;;;;;;;5053913;28;20208;-62
2022/10/07 08:27:00;;;;;;;25.55;22.85;;;;;;;;;;5054114;28;20287;-61
2022/10/07 08:29:29;;;;;;;46.38;41.38;;;;;;;;;;5053831;28;20203;-62
2022/10/07 08:31:56;;;;;;;35.35;29.98;;;;;;;;;;5053794;28;20199;-62
2022/10/07 08:34:23;;;;;;;22.65;20.27;;;;;;;;;;5054652;28;20289;-62
2022/10/07 08:36:51;;;;;;;24.05;14.45;;;;;;;;;;5055190;28;20261;-62
2022/10/07 08:39:18;;;;;;;8.63;4.68;;;;;;;;;;5047725;28;20208;-61
2022/10/07 08:42:02;;;;;;;10.93;6.20;;;;;;;;;;5034496;28;20224;-61
2022/10/07 08:44:31;;;;;;;20.13;14.23;;;;;;;;;;5036975;28;20208;-61
2022/10/07 08:47:23;;;;;;;11.95;8.50;;;;;;;;;;5056895;28;20204;-64
2022/10/07 08:49:59;;;;;;;7.10;5.50;;;;;;;;;;5044062;28;20299;-65
2022/10/07 08:52:31;;;;;;;15.38;12.40;;;;;;;;;;5058441;28;20207;-66
2022/10/07 08:55:00;;;;;;;8.25;3.28;;;;;;;;;;5057640;28;20199;-63
2022/10/07 08:57:42;;;;;;;14.90;6.13;;;;;;;;;;5058318;28;20204;-67
2022/10/07 09:00:14;;;;;;;10.43;4.97;;;;;;;;;;5057387;28;20204;-58
2022/10/07 09:02:49;;;;;;;7.95;2.75;;;;;;;;;;5058446;28;20238;-65
2022/10/07 09:05:20;;;;;;;26.63;21.33;;;;;;;;;;5056718;28;20622;-61
2022/10/07 09:07:52;;;;;;;11.00;5.80;;;;;;;;;;5057044;28;20269;-60
2022/10/07 09:10:25;;;;;;;8.27;3.80;;;;;;;;;;5056242;28;20192;-62
2022/10/07 09:12:57;;;;;;;9.65;5.63;;;;;;;;;;5056754;28;20200;-66
2022/10/07 09:15:40;;;;;;;10.32;6.50;;;;;;;;;;5049168;28;20204;-63
2022/10/07 09:18:19;;;;;;;8.55;2.95;;;;;;;;;;5037677;28;20205;-67
2022/10/07 09:20:52;;;;;;;9.63;6.68;;;;;;;;;;5057442;28;20196;-65
2022/10/07 09:23:22;;;;;;;7.30;2.85;;;;;;;;;;5057081;28;20207;-59
2022/10/07 09:25:53;;;;;;;5.25;1.90;;;;;;;;;;5047024;28;20204;-63
2022/10/07 09:28:28;;;;;;;5.95;1.67;;;;;;;;;;5037552;28;20205;-67
2022/10/07 09:30:58;;;;;;;6.93;3.70;;;;;;;;;;5040172;28;20280;-60
2022/10/07 09:33:28;;;;;;;5.70;2.30;;;;;;;;;;5041772;28;20715;-63
2022/10/07 09:36:03;;;;;;;4.95;2.17;;;;;;;;;;5056496;28;20203;-62
2022/10/07 09:38:44;;;;;;;5.53;1.90;;;;;;;;;;5050804;28;20226;-61
2022/10/07 09:41:34;;;;;;;10.77;2.67;;;;;;;;;;5048154;28;20307;-61
2022/10/07 09:44:14;;;;;;;6.40;3.05;;;;;;;;;;5044879;28;20234;-60
2022/10/07 09:46:50;;;;;;;2.97;2.05;;;;;;;;;;5057451;28;20261;-62
2022/10/07 09:49:26;;;;;;;10.73;2.60;;;;;;;;;;5056080;28;20212;-60
2022/10/07 09:52:02;;;;;;;3.30;1.15;;;;;;;;;;5057070;28;20192;-60
2022/10/07 09:54:31;;;;;;;7.55;1.60;;;;;;;;;;5056711;28;20657;-60
2022/10/07 09:57:01;;;;;;;5.68;1.73;;;;;;;;;;5054847;28;20689;-61
2022/10/07 09:59:33;;;;;;;2.80;0.85;;;;;;;;;;5048234;28;20235;-64
2022/10/07 10:02:00;;;;;;;4.72;1.45;;;;;;;;;;5055278;28;20224;-65
2022/10/07 10:04:36;;;;;;;2.20;0.93;;;;;;;;;;5056337;28;20266;-64
2022/10/07 10:07:06;;;;;;;6.53;1.40;;;;;;;;;;5056000;28;20188;-62
2022/10/07 10:09:33;;;;;;;3.47;1.35;;;;;;;;;;5055832;28;20532;-62
2022/10/07 10:12:07;;;;;;;7.60;3.47;;;;;;;;;;5056245;28;20673;-61
2022/10/07 10:14:42;;;;;;;12.40;2.05;;;;;;;;;;5056028;28;20204;-62
2022/10/07 10:17:29;;;;;;;3.30;1.50;;;;;;;;;;5052301;28;20524;-61
2022/10/07 10:20:25;;;;;;;5.57;1.58;;;;;;;;;;5039835;28;20531;-60
2022/10/07 10:22:52;;;;;;;2.90;1.42;;;;;;;;;;5053378;28;20658;-61
2022/10/07 10:28:43;;;;;;;4.85;1.55;;;;;;;;;;5055761;28;20215;-66
2022/10/07 10:31:43;;;;;;;5.40;2.20;;;;;;;;;;5056437;28;20285;-67
2022/10/07 10:34:29;;;;;;;3.90;1.60;;;;;;;;;;5056330;28;20219;-64
2022/10/07 10:37:06;;;;;;;4.70;1.30;;;;;;;;;;5056117;28;20288;-63
2022/10/07 10:39:55;;;;;;;2.50;1.10;;;;;;;;;;5055594;28;20277;-65
2022/10/07 10:42:38;;;;;;;5.78;1.55;;;;;;;;;;5055426;28;20227;-59
2022/10/07 10:45:29;;;;;;;3.85;1.88;;;;;;;;;;5056128;28;20635;-59
2022/10/07 10:48:19;;;;;;;4.30;1.52;;;;;;;;;;5053175;28;20262;-66
2022/10/07 10:50:59;;;;;;;4.80;1.73;;;;;;;;;;5052100;28;20524;-66
2022/10/07 10:54:01;;;;;;;4.53;1.30;;;;;;;;;;5052255;28;20220;-61
2022/10/07 10:56:33;;;;;;;5.93;1.05;;;;;;;;;;5051424;28;20203;-62
2022/10/07 10:59:24;;;;;;;3.72;1.40;;;;;;;;;;5053926;28;20305;-63
2022/10/07 11:02:01;;;;;;;5.25;2.08;;;;;;;;;;5052223;28;20553;-64
2022/10/07 11:04:40;;;;;;;10.63;1.85;;;;;;;;;;5052656;28;20196;-62
2022/10/07 11:07:20;;;;;;;6.88;1.58;;;;;;;;;;5054299;28;20269;-63
2022/10/07 11:09:55;;;;;;;6.18;1.33;;;;;;;;;;5050253;28;20212;-65
2022/10/07 11:12:26;;;;;;;8.18;2.00;;;;;;;;;;5050780;28;20536;-66
2022/10/07 11:15:00;;;;;;;6.00;1.45;;;;;;;;;;5050660;28;20548;-61
2022/10/07 11:17:31;;;;;;;6.82;1.45;;;;;;;;;;5051787;28;20210;-64
2022/10/07 11:20:24;;;;;;;6.00;1.55;;;;;;;;;;5051920;28;20283;-63
2022/10/07 11:22:56;;;;;;;4.85;1.30;;;;;;;;;;5048831;28;20566;-58
2022/10/07 11:25:27;;;;;;;5.78;1.50;;;;;;;;;;5050913;28;20318;-63
2022/10/07 11:28:03;;;;;;;3.88;1.60;;;;;;;;;;5053412;28;20200;-68
2022/10/07 11:30:36;;;;;;;5.88;3.67;;;;;;;;;;5054802;28;20203;-70
2022/10/07 11:33:25;;;;;;;3.60;1.80;;;;;;;;;;5051547;28;20497;-68
2022/10/07 11:35:57;;;;;;;4.65;1.60;;;;;;;;;;5052708;28;20195;-67
2022/10/07 11:38:30;;;;;;;9.45;2.05;;;;;;;;;;5048750;28;20188;-63
2022/10/07 11:41:01;;;;;;;5.22;2.33;;;;;;;;;;5052513;28;20631;-69
2022/10/07 11:43:39;;;;;;;7.15;1.90;;;;;;;;;;5051600;28;20219;-62
2022/10/07 11:46:34;;;;;;;2.33;1.33;;;;;;;;;;5053009;28;20231;-61
2022/10/07 11:49:10;;;;;;;7.60;1.70;;;;;;;;;;5067834;28;20232;-64
2022/10/07 11:51:43;;;;;;;5.20;1.58;;;;;;;;;;5049899;28;20688;-62
2022/10/07 11:54:13;;;;;;;4.97;1.17;;;;;;;;;;5052514;28;20596;-62
2022/10/07 11:56:48;;;;;;;4.53;1.80;;;;;;;;;;5048880;28;20211;-59
2022/10/07 11:59:45;;;;;;;7.28;1.70;;;;;;;;;;5049605;28;20223;-64
2022/10/07 12:02:27;;;;;;;6.80;2.08;;;;;;;;;;5048092;28;20216;-65
2022/10/07 12:04:56;;;;;;;4.63;2.00;;;;;;;;;;5050623;28;20269;-66
2022/10/07 12:07:33;;;;;;;5.45;1.85;;;;;;;;;;5053322;28;20192;-57
2022/10/07 12:10:01;;;;;;;7.50;1.73;;;;;;;;;;5054449;28;20196;-60
2022/10/07 12:12:46;;;;;;;4.75;1.90;;;;;;;;;;5047794;28;20218;-55
2022/10/07 12:15:42;;;;;;;4.15;1.38;;;;;;;;;;5043122;28;20223;-63
2022/10/07 12:18:16;;;;;;;5.35;1.63;;;;;;;;;;5047568;28;20238;-62
2022/10/07 12:20:49;;;;;;;7.70;2.78;;;;;;;;;;5051471;28;20269;-60
2022/10/07 12:23:19;;;;;;;4.15;2.08;;;;;;;;;;5050525;28;20231;-65
2022/10/07 12:25:59;;;;;;;8.27;1.90;;;;;;;;;;5051096;28;20224;-59
2022/10/07 12:28:39;;;;;;;4.35;2.33;;;;;;;;;;5050842;28;20672;-56
2022/10/07 12:31:16;;;;;;;4.00;1.95;;;;;;;;;;5051319;28;20235;-55
2022/10/07 12:34:01;;;;;;;3.63;1.55;;;;;;;;;;5050063;28;20215;-57
2022/10/07 12:36:29;;;;;;;4.50;1.55;;;;;;;;;;5050827;28;20215;-56
2022/10/07 12:39:00;;;;;;;4.60;1.48;;;;;;;;;;5050950;28;20223;-55
2022/10/07 12:41:30;;;;;;;6.45;1.90;;;;;;;;;;5047794;28;20219;-54
2022/10/07 12:44:05;;;;;;;2.95;1.15;;;;;;;;;;5047352;28;20659;-57
2022/10/07 12:47:09;;;;;;;5.00;1.90;;;;;;;;;;5048131;28;20281;-54
2022/10/07 12:49:47;;;;;;;6.03;2.50;;;;;;;;;;5049277;28;20223;-55
2022/10/07 12:52:15;;;;;;;9.15;2.10;;;;;;;;;;5050217;28;20651;-59
2022/10/07 12:55:06;;;;;;;6.55;1.63;;;;;;;;;;5043250;28;20220;-50
2022/10/07 12:57:35;;;;;;;6.53;1.40;;;;;;;;;;5051615;28;20228;-54
2022/10/07 13:00:10;;;;;;;6.57;1.67;;;;;;;;;;5050810;28;20305;-51
2022/10/07 13:03:07;;;;;;;6.15;1.75;;;;;;;;;;5031484;28;20228;-51
2022/10/07 13:05:46;;;;;;;7.35;1.67;;;;;;;;;;5039788;28;20232;-50
2022/10/07 13:08:50;;;;;;;4.53;2.25;;;;;;;;;;5048966;28;20620;-49
2022/10/07 13:11:51;;;;;;;5.13;1.45;;;;;;;;;;5042556;28;20281;-55
2022/10/07 13:14:29;;;;;;;3.08;1.50;;;;;;;;;;5050640;28;20219;-49
2022/10/07 13:17:03;;;;;;;4.30;1.80;;;;;;;;;;5039337;28;20254;-58
2022/10/07 13:19:40;;;;;;;4.68;1.67;;;;;;;;;;5041083;28;20258;-53
2022/10/07 13:22:15;;;;;;;7.90;1.83;;;;;;;;;;5048898;28;20310;-52
2022/10/07 13:24:48;;;;;;;6.18;1.63;;;;;;;;;;5037253;28;20231;-57
2022/10/07 13:27:18;;;;;;;10.65;1.42;;;;;;;;;;5042253;28;20230;-54
2022/10/07 13:29:46;;;;;;;7.90;1.25;;;;;;;;;;5038246;28;20607;-54
2022/10/07 13:32:29;;;;;;;5.40;1.30;;;;;;;;;;5051857;28;20232;-55
2022/10/07 13:34:58;;;;;;;3.53;1.20;;;;;;;;;;5043197;28;20281;-54
2022/10/07 13:37:36;;;;;;;18.88;2.72;;;;;;;;;;5045097;28;20220;-54
2022/10/07 13:40:27;;;;;;;10.65;1.90;;;;;;;;;;5052421;28;20303;-57
2022/10/07 13:43:05;;;;;;;6.53;1.35;;;;;;;;;;5041602;28;20942;-52
2022/10/07 13:45:43;;;;;;;7.80;1.65;;;;;;;;;;5046981;28;20228;-56
2022/10/07 13:48:21;;;;;;;6.53;1.40;;;;;;;;;;5043895;28;20244;-54
2022/10/07 13:50:49;;;;;;;4.68;1.98;;;;;;;;;;5042751;28;20560;-53
2022/10/07 13:53:41;;;;;;;7.80;4.20;;;;;;;;;;5045779;28;20243;-50
2022/10/07 13:56:29;;;;;;;7.72;1.35;;;;;;;;;;5056148;28;20235;-51
2022/10/07 13:58:56;;;;;;;23.00;10.38;;;;;;;;;;5054155;28;20557;-50
2022/10/07 14:01:27;;;;;;;80.50;40.25;;;;;;;;;;5035822;28;20224;-53
2022/10/07 14:04:19;;;;;;;37.65;20.33;;;;;;;;;;5034794;28;20323;-54
2022/10/07 14:06:52;;;;;;;21.08;9.88;;;;;;;;;;5036027;28;20560;-48
2022/10/07 14:09:35;;;;;;;7.22;4.07;;;;;;;;;;5036003;28;20213;-58
2022/10/07 14:12:24;;;;;;;12.10;2.40;;;;;;;;;;5035808;28;20224;-56
2022/10/07 14:14:54;;;;;;;5.35;1.95;;;;;;;;;;5051698;28;20310;-51
2022/10/07 14:17:37;;;;;;;6.97;2.10;;;;;;;;;;5035983;28;20192;-53
2022/10/07 14:20:14;;;;;;;3.72;1.35;;;;;;;;;;5055660;28;20208;-53
2022/10/07 14:22:42;;;;;;;6.00;1.50;;;;;;;;;;5054876;28;20299;-50
2022/10/07 14:25:26;;;;;;;4.57;1.40;;;;;;;;;;5044670;28;20570;-55
2022/10/07 14:27:57;;;;;;;3.55;1.50;;;;;;;;;;5034995;28;20196;-50
2022/10/07 14:30:26;;;;;;;4.07;1.50;;;;;;;;;;5035930;28;20212;-66
2022/10/07 14:36:10;;;;;;;4.15;1.30;;;;;;;;;;5055716;28;20208;-62
2022/10/07 14:38:37;;;;;;;5.40;1.35;;;;;;;;;;5046642;28;20234;-63
2022/10/07 14:41:04;;;;;;;7.18;1.70;;;;;;;;;;5056551;28;20212;-62
2022/10/07 14:43:32;;;;;;;7.78;1.40;;;;;;;;;;5037784;28;20223;-62
2022/10/07 14:46:10;;;;;;;3.35;1.15;;;;;;;;;;5056072;28;20208;-64
2022/10/07 14:48:37;;;;;;;2.45;1.50;;;;;;;;;;5056153;28;20196;-67
2022/10/07 14:51:04;;;;;;;4.22;1.45;;;;;;;;;;5054976;28;20209;-61
2022/10/07 14:53:33;;;;;;;4.20;1.33;;;;;;;;;;5049177;28;20208;-60
2022/10/07 14:56:00;;;;;;;5.68;1.27;;;;;;;;;;5042912;28;20494;-60
2022/10/07 14:58:28;;;;;;;4.47;1.30;;;;;;;;;;5043174;28;20231;-60
2022/10/07 15:00:55;;;;;;;4.70;1.40;;;;;;;;;;5055815;28;20219;-61
2022/10/07 15:03:23;;;;;;;5.05;1.65;;;;;;;;;;5055598;28;20609;-60
2022/10/07 15:05:50;;;;;;;7.00;1.40;;;;;;;;;;5055372;28;20665;-60
2022/10/07 15:08:18;;;;;;;5.63;1.42;;;;;;;;;;5051932;28;20197;-61
2022/10/07 15:10:45;;;;;;;4.47;1.30;;;;;;;;;;5051610;28;20204;-61
2022/10/07 15:13:12;;;;;;;28.45;14.93;;;;;;;;;;5050469;28;20192;-64
2022/10/07 15:15:41;;;;;;;9.13;2.72;;;;;;;;;;5054785;28;20655;-60
2022/10/07 15:18:10;;;;;;;9.48;3.85;;;;;;;;;;5050398;28;20575;-59
2022/10/07 15:20:38;;;;;;;8.95;4.68;;;;;;;;;;5034740;28;20201;-61
2022/10/07 15:23:06;;;;;;;7.28;2.80;;;;;;;;;;5034311;28;20224;-67
2022/10/07 15:25:33;;;;;;;3.45;1.48;;;;;;;;;;5035044;28;20218;-60